Mid City East, Pennsylvania
Current Conditions -  °F | °C
As of 7:54 PM on Saturday 20 Dec 2014 (Local Time) from KPHL Reporting Station
Overcast Overcast  
Wind Chill: 29°   Ceiling: 3200
Heat Index: 35°   Visibility: 10mi
Dew Point: 21°   Wind: 7mph
Humidity: 57%   Direction: 290°WNW
Pressure: 30.31"   Gusts: NA
Location:  39.9531°N, 75.1651°W
Report Text: KPHL 210054Z 29006KT 10SM OVC032 02/M06 A3031 RMK AO2 SLP264 T00171061
Loading
Personal Weather Stations






























Interactive Weather Map New forecast layout! Learn more

10-Day Weather Forecast

Advertisements
Track Severe Weather on mobile